Wallingford, Pennsylvania
Current Conditions -  °F | °C
As of 6:54 AM on Sunday 25 Jan 2015 (Local Time) from KPHL Reporting Station
Overcast Overcast  
Wind Chill: 26°   Ceiling: 5000
Heat Index: 36°   Visibility: 10mi
Dew Point: 28°   Wind: 16mph
Humidity: 73%   Direction: 230°SW
Pressure: 29.75"   Gusts: NA
Location:  39.89°N, 75.36°W
Report Text: KPHL 251154Z 23014KT 10SM OVC050 02/M02 A2975 RMK AO2 SLP074 70001 T00221022 10022 20006 53025
Loading
Personal Weather Stations






























Interactive Weather Map New forecast layout! Learn more

10-Day Weather Forecast

Advertisements
Track Severe Weather on mobile